Decoded Metar for KMIB (MINOT in ND, USA) (IATA:MIB) | Meteo·Mobile Aviation Weather
aviador You're here:

KMIB Decoded Metar

MINOT in ND, USA
Report Time2019-05-26 16:56:00
UTC Time2019-05-26 17:06:59
Flight Rules ifr IFR
Wind080° at 17 kt
W.Decomp.*RWY 11: 13.0 kt HW 10.9 kt LCW
Visibility9999 m
Phenomena:N/A
Clouds:Overcast 009 Hf
Expected CloudBase > 400 ft AGL from Temp-Dew spread
Ceiling900 ft
Temp08°C (ISA -4)
Dew Point07°C (93% RH)
AAT1.2°C
QNH1020 hPa
Density Alt1,132 ft
Elevation1,667 ft
Report Wrong Elevation
Raw Report
KMIB 261656Z AUTO 08017KT 10SM OVC009 08/07 A3011 RMK AO2 SLP208
T00800068 $=

Extra information for KMIB:More info

Metar Taf Metar & Taf Last 4 Metars F.Rules Stats Wind Profile Meteogram Temp Stats Airport Information Weather charts Add Link Nearby VenuesMetar ALERT Operation Metar Decoded Social comments

AIRNAV info for KMIB